Time;durP1;ratioP1;P1;durP2;ratioP2;P2;SDS_P1;SDS_P2;PMS_P1;PMS_P2;Temp;Humidity;BMP_temperature;BMP_pressure;BME280_temperature;BME280_humidity;BME280_pressure;Samples;Min_cycle;Max_cycle;Signal;HPM_P1;HPM_P2
2022/02/15 00:00:29;;;;;;;27.15;9.90;;;;;;;6.13;100.00;97262.75;5006856;28;20394;-59
2022/02/15 00:02:54;;;;;;;29.40;10.38;;;;;;;6.12;100.00;97256.72;5007688;28;20041;-59
2022/02/15 00:05:19;;;;;;;25.65;10.38;;;;;;;6.06;100.00;97256.09;5006280;28;20462;-58
2022/02/15 00:07:46;;;;;;;30.58;10.80;;;;;;;5.92;100.00;97259.13;5005976;28;20082;-59
2022/02/15 00:10:11;;;;;;;29.58;10.68;;;;;;;6.36;100.00;97257.59;5005555;28;20032;-56
2022/02/15 00:12:38;;;;;;;32.40;10.57;;;;;;;5.88;100.00;97260.97;5005935;28;20511;-59
2022/02/15 00:15:05;;;;;;;29.13;10.60;;;;;;;5.92;100.00;97264.31;5005821;28;20087;-59
2022/02/15 00:17:31;;;;;;;29.42;10.68;;;;;;;5.93;100.00;97255.63;5007263;28;20041;-59
2022/02/15 00:19:56;;;;;;;32.17;10.93;;;;;;;6.11;100.00;97259.38;5006234;28;20026;-59
2022/02/15 00:22:22;;;;;;;27.83;10.80;;;;;;;6.24;100.00;97258.03;5003836;28;20133;-59
2022/02/15 00:24:47;;;;;;;30.55;11.07;;;;;;;6.40;100.00;97262.69;5007958;28;20035;-58
2022/02/15 00:27:12;;;;;;;28.08;10.63;;;;;;;6.29;100.00;97257.88;5005682;28;20044;-57
2022/02/15 00:29:38;;;;;;;26.80;10.05;;;;;;;6.32;100.00;97263.81;5008152;28;20018;-60
2022/02/15 00:32:04;;;;;;;29.73;12.05;;;;;;;6.44;100.00;97257.31;5006735;28;20131;-59
2022/02/15 00:34:30;;;;;;;32.80;12.18;;;;;;;6.47;100.00;97258.94;5008203;28;20040;-59
2022/02/15 00:36:56;;;;;;;35.05;12.27;;;;;;;6.12;100.00;97267.09;5003475;28;20044;-60
2022/02/15 00:39:21;;;;;;;37.92;11.90;;;;;;;5.96;100.00;97264.16;5005567;28;20148;-59
2022/02/15 00:41:46;;;;;;;39.45;12.50;;;;;;;5.80;100.00;97268.13;5005128;28;20309;-58
2022/02/15 00:44:12;;;;;;;35.80;12.88;;;;;;;6.16;100.00;97267.81;5006049;28;20033;-57
2022/02/15 00:46:37;;;;;;;31.73;11.80;;;;;;;6.30;100.00;97277.69;5004233;28;20037;-59
2022/02/15 00:49:02;;;;;;;29.38;11.73;;;;;;;6.33;100.00;97269.81;5005452;28;20117;-60
2022/02/15 00:51:27;;;;;;;31.33;11.65;;;;;;;6.10;100.00;97265.44;5004801;28;20046;-58
2022/02/15 00:53:53;;;;;;;29.55;12.05;;;;;;;6.06;100.00;97271.63;5003843;28;20053;-58
2022/02/15 00:56:18;;;;;;;32.90;12.55;;;;;;;6.24;100.00;97278.75;5006235;28;20100;-60
2022/02/15 00:58:44;;;;;;;27.67;12.40;;;;;;;6.09;100.00;97266.34;5007782;28;20452;-60
2022/02/15 01:01:09;;;;;;;37.28;13.75;;;;;;;6.37;100.00;97277.41;5010271;28;20562;-58
2022/02/15 01:03:34;;;;;;;34.47;13.27;;;;;;;6.48;100.00;97281.38;5008917;28;20092;-58
2022/02/15 01:06:00;;;;;;;28.92;12.15;;;;;;;6.27;100.00;97276.06;5010365;28;20750;-60
2022/02/15 01:08:26;;;;;;;25.92;11.70;;;;;;;6.47;100.00;97283.13;5008030;28;20034;-59
2022/02/15 01:10:52;;;;;;;33.58;13.45;;;;;;;6.23;100.00;97278.78;5009703;28;20066;-59
2022/02/15 01:13:17;;;;;;;29.90;13.25;;;;;;;6.47;100.00;97282.25;5010663;28;20049;-60
2022/02/15 01:15:44;;;;;;;33.20;14.15;;;;;;;6.39;100.00;97277.34;5008605;28;20141;-60
2022/02/15 01:18:09;;;;;;;31.15;12.38;;;;;;;6.60;100.00;97290.44;5007827;28;20777;-58
2022/02/15 01:20:35;;;;;;;30.92;13.00;;;;;;;6.21;100.00;97276.25;5010194;28;20553;-60
2022/02/15 01:23:00;;;;;;;35.78;13.32;;;;;;;6.41;100.00;97279.91;5010121;28;20033;-59
2022/02/15 01:25:26;;;;;;;31.27;13.18;;;;;;;6.30;100.00;97286.28;5009062;28;20180;-60
2022/02/15 01:27:53;;;;;;;30.45;12.13;;;;;;;6.64;100.00;97279.91;5010062;28;20018;-59
2022/02/15 01:30:18;;;;;;;38.15;14.60;;;;;;;6.53;100.00;97272.53;5010186;28;20030;-59
2022/02/15 01:32:44;;;;;;;32.45;13.32;;;;;;;5.79;100.00;97269.06;5010467;28;20036;-57
2022/02/15 01:35:10;;;;;;;32.55;13.32;;;;;;;6.32;100.00;97273.28;5007157;28;20033;-58
2022/02/15 01:37:35;;;;;;;32.92;12.77;;;;;;;6.21;100.00;97273.66;5009337;28;20029;-58
2022/02/15 01:40:02;;;;;;;35.10;13.05;;;;;;;6.61;100.00;97264.47;5009483;28;20025;-59
2022/02/15 01:42:27;;;;;;;33.30;12.77;;;;;;;6.16;100.00;97260.91;5009786;28;20037;-57
2022/02/15 01:44:53;;;;;;;35.33;12.98;;;;;;;6.31;100.00;97275.03;5008729;28;20058;-59
2022/02/15 01:47:26;;;;;;;37.60;13.43;;;;;;;6.47;100.00;97279.66;5008007;28;20038;-58
2022/02/15 01:49:52;;;;;;;32.70;12.68;;;;;;;6.42;100.00;97279.84;5009334;28;20031;-57
2022/02/15 01:52:20;;;;;;;28.75;12.02;;;;;;;6.58;100.00;97282.75;5010306;28;20079;-57
2022/02/15 01:54:50;;;;;;;33.53;12.68;;;;;;;6.34;100.00;97292.22;5010075;28;20975;-58
2022/02/15 01:57:17;;;;;;;33.42;12.15;;;;;;;6.54;100.00;97296.69;5008521;28;20038;-57
2022/02/15 01:59:44;;;;;;;29.88;12.10;;;;;;;6.44;100.00;97291.00;5008307;28;20041;-57
2022/02/15 02:02:09;;;;;;;28.05;11.77;;;;;;;6.33;100.00;97285.34;5009624;28;20037;-58
2022/02/15 02:07:19;;;;;;;29.50;12.80;;;;;;;6.19;100.00;97283.25;5010376;28;20422;-57
2022/02/15 02:09:44;;;;;;;34.40;12.63;;;;;;;6.43;100.00;97281.53;5007600;28;20776;-58
2022/02/15 02:12:10;;;;;;;33.83;12.75;;;;;;;6.33;100.00;97280.19;5008117;28;20069;-58
2022/02/15 02:14:35;;;;;;;35.33;13.88;;;;;;;6.23;100.00;97269.31;5007056;28;20061;-57
2022/02/15 02:17:01;;;;;;;33.22;13.25;;;;;;;6.21;100.00;97265.91;5007971;28;20030;-58
2022/02/15 02:19:26;;;;;;;31.48;12.52;;;;;;;6.54;100.00;97271.63;5007353;28;20034;-58
2022/02/15 02:21:53;;;;;;;32.90;13.20;;;;;;;6.21;100.00;97276.25;5007621;28;20053;-58
2022/02/15 02:24:19;;;;;;;34.80;13.25;;;;;;;6.10;100.00;97268.88;5008601;28;20036;-58
2022/02/15 02:26:45;;;;;;;35.80;13.68;;;;;;;6.25;100.00;97270.09;5007138;28;20582;-59
2022/02/15 02:29:11;;;;;;;33.15;13.65;;;;;;;6.26;100.00;97268.34;5007874;28;20025;-57
2022/02/15 02:31:36;;;;;;;35.78;13.30;;;;;;;6.43;100.00;97267.72;5007372;28;20076;-57
2022/02/15 02:34:01;;;;;;;30.60;12.30;;;;;;;6.68;100.00;97265.09;5008608;28;20063;-56
2022/02/15 02:36:27;;;;;;;30.73;12.50;;;;;;;6.81;100.00;97270.66;5007133;28;20041;-58
2022/02/15 02:38:52;;;;;;;33.25;11.82;;;;;;;6.81;100.00;97270.66;5008473;28;20129;-58
2022/02/15 02:41:18;;;;;;;35.58;13.05;;;;;;;6.83;100.00;97277.47;5008510;28;20675;-58
2022/02/15 02:43:43;;;;;;;29.40;12.38;;;;;;;6.66;100.00;97272.91;5006271;28;20376;-57
2022/02/15 02:46:08;;;;;;;35.78;13.27;;;;;;;6.73;100.00;97279.56;5007678;28;20042;-57
2022/02/15 02:48:34;;;;;;;29.13;12.52;;;;;;;6.82;100.00;97282.72;5009052;28;20026;-58
2022/02/15 02:50:59;;;;;;;31.42;12.38;;;;;;;6.68;100.00;97289.25;5006516;28;20363;-58
2022/02/15 02:53:24;;;;;;;33.35;13.50;;;;;;;6.62;100.00;97297.25;5007011;28;20514;-57
2022/02/15 02:55:50;;;;;;;32.70;13.18;;;;;;;6.51;100.00;97294.22;5006132;28;20883;-59
2022/02/15 02:58:15;;;;;;;34.00;12.98;;;;;;;6.81;100.00;97291.41;4976391;28;20111;-57
2022/02/15 03:00:41;;;;;;;32.42;13.13;;;;;;;6.94;100.00;97287.44;5006922;28;20049;-58
2022/02/15 03:03:09;;;;;;;34.47;13.02;;;;;;;6.67;100.00;97299.66;5009647;28;20030;-57
2022/02/15 03:05:35;;;;;;;32.25;13.00;;;;;;;6.65;100.00;97297.13;5006832;28;20046;-58
2022/02/15 03:08:00;;;;;;;31.90;13.00;;;;;;;6.45;100.00;97307.38;5006949;28;20061;-58
2022/02/15 03:10:26;;;;;;;32.08;12.57;;;;;;;6.70;100.00;97305.59;5008145;28;20112;-59
2022/02/15 03:12:51;;;;;;;32.47;12.90;;;;;;;6.96;100.00;97301.19;5008317;28;20083;-58
2022/02/15 03:15:16;;;;;;;28.35;12.52;;;;;;;6.88;100.00;97303.25;5005118;28;20026;-57
2022/02/15 03:17:42;;;;;;;31.75;12.65;;;;;;;6.84;100.00;97315.47;5009927;28;20021;-58
2022/02/15 03:20:09;;;;;;;36.22;13.70;;;;;;;6.57;100.00;97309.53;5006401;28;20865;-58
2022/02/15 03:22:34;;;;;;;34.80;13.25;;;;;;;6.96;100.00;97316.75;5003749;28;20022;-58
2022/02/15 03:25:00;;;;;;;30.98;12.55;;;;;;;6.91;100.00;97323.84;5005012;28;20040;-58
2022/02/15 03:27:25;;;;;;;30.52;11.98;;;;;;;7.00;100.00;97327.84;5007371;28;20041;-58
2022/02/15 03:29:51;;;;;;;31.83;12.20;;;;;;;6.85;100.00;97330.09;5008879;28;20025;-59
2022/02/15 03:32:16;;;;;;;31.95;12.73;;;;;;;6.93;100.00;97332.44;5008349;28;20762;-58
2022/02/15 03:34:42;;;;;;;35.88;12.93;;;;;;;6.79;100.00;97329.50;5006344;28;20036;-57
2022/02/15 03:37:07;;;;;;;28.35;11.55;;;;;;;6.77;100.00;97328.72;5006701;28;20053;-58
2022/02/15 03:39:35;;;;;;;29.58;12.38;;;;;;;6.79;100.00;97337.28;5007132;28;20037;-58
2022/02/15 03:44:45;;;;;;;32.30;12.45;;;;;;;6.90;100.00;97343.75;5006757;28;20060;-57
2022/02/15 03:47:10;;;;;;;29.38;12.00;;;;;;;7.02;100.00;97346.78;5005264;28;20427;-58
2022/02/15 03:49:36;;;;;;;34.63;12.45;;;;;;;6.87;100.00;97350.78;5007477;28;20092;-58
2022/02/15 03:52:01;;;;;;;32.78;13.10;;;;;;;7.20;100.00;97348.69;5005356;28;20060;-58
2022/02/15 03:54:26;;;;;;;29.75;12.40;;;;;;;6.74;100.00;97351.22;5007226;28;20087;-59
2022/02/15 03:56:52;;;;;;;28.83;12.52;;;;;;;6.77;100.00;97352.03;5006115;28;20104;-57
2022/02/15 03:59:19;;;;;;;30.50;13.02;;;;;;;7.07;100.00;97353.47;5006654;28;20060;-57
2022/02/15 04:01:45;;;;;;;33.65;13.20;;;;;;;7.16;100.00;97347.13;5006031;28;20740;-57
2022/02/15 04:04:10;;;;;;;35.83;13.07;;;;;;;6.80;100.00;97351.91;5007172;28;20056;-59
2022/02/15 04:06:35;;;;;;;35.38;13.50;;;;;;;7.00;100.00;97357.19;5005355;28;20042;-59
2022/02/15 04:09:01;;;;;;;32.75;12.55;;;;;;;7.16;100.00;97360.09;5008567;28;20025;-58
2022/02/15 04:11:26;;;;;;;30.58;12.65;;;;;;;7.31;100.00;97358.66;5006484;28;20057;-57
2022/02/15 04:13:52;;;;;;;33.95;12.88;;;;;;;7.08;100.00;97362.97;5009041;28;20022;-58
2022/02/15 04:16:17;;;;;;;32.25;11.23;;;;;;;7.17;100.00;97372.16;5004946;28;20037;-58
2022/02/15 04:18:47;;;;;;;35.67;13.05;;;;;;;7.21;100.00;97372.91;5003288;28;20188;-57
2022/02/15 04:21:14;;;;;;;31.40;12.48;;;;;;;7.34;100.00;97364.56;5006128;28;20319;-57
2022/02/15 04:23:40;;;;;;;30.83;11.75;;;;;;;7.17;100.00;97376.47;5006707;28;20022;-58
2022/02/15 04:26:06;;;;;;;33.13;12.63;;;;;;;7.19;100.00;97374.69;5007564;28;20041;-59
2022/02/15 04:28:31;;;;;;;31.45;12.32;;;;;;;7.29;100.00;97370.84;5005108;28;20926;-58
2022/02/15 04:30:56;;;;;;;33.58;13.30;;;;;;;7.21;100.00;97372.91;5006478;28;20087;-58
2022/02/15 04:33:22;;;;;;;29.38;11.63;;;;;;;7.13;100.00;97371.44;5006731;28;20025;-58
2022/02/15 04:35:47;;;;;;;30.58;11.98;;;;;;;7.24;100.00;97372.75;5010280;28;20037;-58
2022/02/15 04:38:13;;;;;;;29.15;10.77;;;;;;;7.50;100.00;97372.63;5010519;28;20053;-58
2022/02/15 04:40:38;;;;;;;33.47;12.73;;;;;;;6.99;100.00;97384.06;5010785;28;20099;-59
2022/02/15 04:43:04;;;;;;;32.60;11.98;;;;;;;7.19;100.00;97380.72;5009911;28;20025;-59
2022/02/15 04:45:29;;;;;;;29.35;11.88;;;;;;;7.45;100.00;97378.91;5010921;28;20033;-59
2022/02/15 04:47:55;;;;;;;33.83;14.02;;;;;;;6.96;100.00;97384.16;5010267;28;20034;-58
2022/02/15 04:50:20;;;;;;;37.63;15.02;;;;;;;7.12;100.00;97381.84;5008542;28;20026;-58
2022/02/15 04:52:45;;;;;;;31.73;12.65;;;;;;;7.20;100.00;97382.41;5009728;28;20037;-59
2022/02/15 04:55:11;;;;;;;28.00;12.18;;;;;;;7.41;100.00;97385.13;5009313;28;20504;-58
2022/02/15 04:57:37;;;;;;;33.75;13.50;;;;;;;7.37;100.00;97386.97;5009963;28;20032;-58
2022/02/15 05:00:03;;;;;;;37.38;14.13;;;;;;;6.89;100.00;97387.88;5010988;28;20582;-58
2022/02/15 05:02:28;;;;;;;34.58;13.05;;;;;;;7.17;100.00;97392.03;5008185;28;20092;-59
2022/02/15 05:04:55;;;;;;;39.38;12.80;;;;;;;7.20;100.00;97382.41;5009937;28;20033;-58
2022/02/15 05:07:22;;;;;;;32.15;12.30;;;;;;;7.45;100.00;97377.13;5010470;28;20437;-59
2022/02/15 05:09:49;;;;;;;29.23;11.95;;;;;;;7.53;100.00;97380.31;5009757;28;20028;-60
2022/02/15 05:12:16;;;;;;;33.58;12.52;;;;;;;7.53;100.00;97385.50;5009611;28;20033;-58
2022/02/15 05:14:42;;;;;;;30.42;11.48;;;;;;;7.28;100.00;97389.91;5009848;28;20381;-60
2022/02/15 05:17:07;;;;;;;35.97;12.82;;;;;;;7.20;100.00;97382.41;5008077;28;20688;-59
2022/02/15 05:19:33;;;;;;;27.15;11.15;;;;;;;7.24;100.00;97391.78;5008944;28;20033;-59
2022/02/15 05:22:00;;;;;;;27.23;11.13;;;;;;;7.25;100.00;97390.03;5008910;28;20112;-60
2022/02/15 05:24:25;;;;;;;29.58;11.02;;;;;;;7.36;100.00;97392.22;5000469;28;20022;-59
2022/02/15 05:26:50;;;;;;;29.50;12.10;;;;;;;7.35;100.00;97393.94;5007593;28;20450;-60
2022/02/15 05:29:16;;;;;;;37.80;12.05;;;;;;;7.23;100.00;97399.63;5008713;28;20038;-58
2022/02/15 05:31:41;;;;;;;34.58;13.35;;;;;;;7.18;100.00;97402.38;5008999;28;20033;-59
2022/02/15 05:34:07;;;;;;;33.50;13.02;;;;;;;7.11;100.00;97406.94;5010089;28;20026;-59
2022/02/15 05:36:33;;;;;;;34.10;12.93;;;;;;;6.94;100.00;97401.53;5009100;28;20561;-58
2022/02/15 05:38:59;;;;;;;32.92;10.68;;;;;;;7.40;100.00;97410.19;5008573;28;20034;-59
2022/02/15 05:41:25;;;;;;;29.67;10.73;;;;;;;7.49;100.00;97417.63;5006045;28;20037;-58
2022/02/15 05:43:50;;;;;;;26.80;11.57;;;;;;;7.28;100.00;97416.69;5010989;28;20026;-59
2022/02/15 05:46:15;;;;;;;28.15;10.98;;;;;;;7.16;100.00;97417.13;5006429;28;20103;-59
2022/02/15 05:48:41;;;;;;;30.42;11.75;;;;;;;7.24;100.00;97409.94;5008977;28;20667;-60
2022/02/15 05:51:06;;;;;;;29.52;11.30;;;;;;;7.41;100.00;97414.50;5008592;28;20046;-60
2022/02/15 05:53:32;;;;;;;34.03;12.57;;;;;;;6.99;100.00;97414.34;5009789;28;20029;-60
2022/02/15 05:55:59;;;;;;;29.10;11.68;;;;;;;7.17;100.00;97415.38;5006981;28;20164;-59
2022/02/15 05:58:29;;;;;;;29.92;12.13;;;;;;;7.24;100.00;97416.84;5009191;28;20041;-60
2022/02/15 06:00:56;;;;;;;28.15;10.93;;;;;;;7.34;100.00;97423.41;5009720;28;20044;-58
2022/02/15 06:06:06;;;;;;;26.40;10.93;;;;;;;6.83;100.00;97426.97;5011984;28;20596;-57
2022/02/15 06:08:31;;;;;;;30.15;10.88;;;;;;;6.91;100.00;97428.41;5011185;28;20038;-58
2022/02/15 06:10:57;;;;;;;33.67;11.93;;;;;;;6.84;100.00;97437.31;5010645;28;20506;-60
2022/02/15 06:13:22;;;;;;;26.65;11.18;;;;;;;6.33;100.00;97444.19;5007854;28;20128;-59
2022/02/15 06:15:47;;;;;;;27.33;10.65;;;;;;;6.58;100.00;97440.78;5009176;28;20045;-59
2022/02/15 06:18:13;;;;;;;23.05;10.30;;;;;;;6.44;100.00;97448.19;5011704;28;20039;-56
2022/02/15 06:20:39;;;;;;;30.20;12.25;;;;;;;6.23;100.00;97445.41;5012374;28;20032;-57
2022/02/15 06:23:04;;;;;;;29.17;12.07;;;;;;;6.50;100.00;97453.16;5011678;28;20025;-61
2022/02/15 06:25:30;;;;;;;28.10;10.77;;;;;;;6.39;100.00;97445.72;5010119;28;20037;-57
2022/02/15 06:27:55;;;;;;;32.33;12.50;;;;;;;6.79;100.00;97448.72;5010796;28;20026;-58
2022/02/15 06:30:22;;;;;;;36.90;12.52;;;;;;;6.86;100.00;97460.59;5010576;28;20029;-59
2022/02/15 06:32:47;;;;;;;31.40;12.10;;;;;;;6.96;100.00;97467.13;5011348;28;20057;-58
2022/02/15 06:35:13;;;;;;;27.65;11.15;;;;;;;6.83;100.00;97461.50;5011421;28;20065;-57
2022/02/15 06:37:45;;;;;;;32.30;11.15;;;;;;;6.99;100.00;97467.03;5012838;28;20029;-57
2022/02/15 06:40:16;;;;;;;29.00;11.15;;;;;;;6.61;100.00;97466.59;5009703;28;20129;-57
2022/02/15 06:42:42;;;;;;;27.60;11.88;;;;;;;6.40;100.00;97478.53;5010693;28;20038;-57
2022/02/15 06:45:08;;;;;;;32.45;12.18;;;;;;;6.41;100.00;97474.19;5010403;28;20108;-58
2022/02/15 06:47:34;;;;;;;32.28;13.00;;;;;;;6.62;100.00;97476.06;5012628;28;20128;-59
2022/02/15 06:50:02;;;;;;;21.58;8.98;;;;;;;6.69;100.00;97480.16;5011019;28;20026;-59
2022/02/15 06:52:28;;;;;;;16.30;4.38;;;;;;;9.34;100.00;97479.44;5008600;28;20500;-57
2022/02/15 06:54:54;;;;;;;31.27;11.00;;;;;;;8.00;100.00;97477.16;5011995;28;20072;-58
2022/02/15 06:57:20;;;;;;;29.38;12.85;;;;;;;7.06;100.00;97468.50;5010643;28;20030;-57
2022/02/15 06:59:45;;;;;;;31.35;12.63;;;;;;;7.12;100.00;97488.19;5010298;28;20405;-58
2022/02/15 07:02:11;;;;;;;26.63;11.20;;;;;;;6.88;100.00;97485.53;5011519;28;20048;-59
2022/02/15 07:04:36;;;;;;;35.38;15.20;;;;;;;6.61;100.00;97487.31;5010979;28;20045;-57
2022/02/15 07:07:02;;;;;;;37.33;14.93;;;;;;;6.77;100.00;97497.19;5010175;28;20154;-59
2022/02/15 07:09:27;;;;;;;35.42;14.63;;;;;;;6.70;100.00;97491.34;5010299;28;20034;-58
2022/02/15 07:11:53;;;;;;;31.00;14.45;;;;;;;6.63;100.00;97500.22;5010727;28;20132;-58
2022/02/15 07:14:18;;;;;;;25.23;13.23;;;;;;;6.53;100.00;97495.34;5012152;28;20079;-57
2022/02/15 07:16:44;;;;;;;33.50;13.00;;;;;;;6.74;100.00;97496.38;5009841;28;20045;-58
2022/02/15 07:19:10;;;;;;;28.92;12.32;;;;;;;7.02;100.00;97502.34;5010623;28;20083;-58
2022/02/15 07:21:36;;;;;;;26.85;12.00;;;;;;;7.01;100.00;97506.72;5010311;28;20499;-58
2022/02/15 07:24:02;;;;;;;25.25;12.13;;;;;;;7.03;100.00;97499.72;5011292;28;20044;-57
2022/02/15 07:26:28;;;;;;;25.20;11.63;;;;;;;7.33;100.00;97508.19;5009882;28;20042;-58
2022/02/15 07:28:54;;;;;;;28.90;13.25;;;;;;;7.00;100.00;97510.19;5012564;28;20475;-58
2022/02/15 07:31:19;;;;;;;32.10;14.77;;;;;;;6.65;100.00;97504.44;5006050;28;20049;-57
2022/02/15 07:33:45;;;;;;;31.23;13.80;;;;;;;6.84;100.00;97512.47;5012480;28;20026;-57
2022/02/15 07:36:10;;;;;;;33.67;14.20;;;;;;;7.43;100.00;97513.88;5012350;28;20124;-59
2022/02/15 07:38:35;;;;;;;28.77;13.60;;;;;;;7.39;100.00;97512.31;5011530;28;20064;-58
2022/02/15 07:41:01;;;;;;;29.95;13.90;;;;;;;7.44;100.00;97514.72;5008894;28;20037;-56
2022/02/15 07:43:27;;;;;;;31.42;13.38;;;;;;;7.41;100.00;97514.84;5010881;28;20026;-57
2022/02/15 07:45:53;;;;;;;27.77;13.07;;;;;;;7.82;100.00;97521.09;5008769;28;20048;-59
2022/02/15 07:48:18;;;;;;;29.27;12.15;;;;;;;7.75;100.00;97518.78;5010381;28;20120;-59
2022/02/15 07:50:44;;;;;;;29.60;13.05;;;;;;;7.99;100.00;97528.25;5009596;28;20129;-59
2022/02/15 07:53:09;;;;;;;27.63;12.43;;;;;;;7.83;100.00;97528.00;5008879;28;20122;-59
2022/02/15 07:55:35;;;;;;;31.13;12.32;;;;;;;7.73;100.00;97531.81;5008945;28;20445;-58
2022/02/15 07:58:00;;;;;;;29.02;13.05;;;;;;;7.86;100.00;97538.25;5012152;28;20096;-59
2022/02/15 08:00:26;;;;;;;27.30;13.13;;;;;;;7.84;100.00;97540.06;5011872;28;20040;-58
2022/02/15 08:02:52;;;;;;;27.27;12.65;;;;;;;8.02;100.00;97532.50;5007726;28;20108;-58
2022/02/15 08:05:19;;;;;;;28.75;13.18;;;;;;;8.03;100.00;97545.41;5017539;28;20152;-59
2022/02/15 08:07:45;;;;;;;30.33;13.35;;;;;;;8.06;100.00;97545.28;5009551;28;20381;-58
2022/02/15 08:10:11;;;;;;;36.25;16.80;;;;;;;8.17;100.00;97542.28;5011131;28;20026;-59
2022/02/15 08:12:36;;;;;;;34.47;15.52;;;;;;;7.97;100.00;97542.19;5008414;28;20025;-59
2022/02/15 08:15:03;;;;;;;34.40;14.05;;;;;;;8.23;100.00;97546.38;5007088;28;20028;-59
2022/02/15 08:17:28;;;;;;;25.98;12.93;;;;;;;8.49;100.00;97543.66;5008284;28;20459;-57
2022/02/15 08:19:53;;;;;;;25.70;12.27;;;;;;;8.57;100.00;97545.94;5010765;28;20083;-58
2022/02/15 08:22:20;;;;;;;31.08;12.15;;;;;;;8.39;100.00;97542.28;5006823;28;20132;-59
2022/02/15 08:24:46;;;;;;;30.50;13.38;;;;;;;8.59;100.00;97554.53;5010421;28;20026;-58
2022/02/15 08:27:11;;;;;;;23.73;10.02;;;;;;;8.49;100.00;97554.06;5010356;28;20381;-58
2022/02/15 08:29:37;;;;;;;24.42;10.80;;;;;;;8.70;100.00;97555.84;5010106;28;20071;-60
2022/02/15 08:32:02;;;;;;;23.00;10.00;;;;;;;8.74;100.00;97557.41;5009216;28;20072;-59
2022/02/15 08:34:28;;;;;;;26.33;11.50;;;;;;;8.58;100.00;97563.22;5010019;28;20626;-58
2022/02/15 08:36:53;;;;;;;28.50;12.93;;;;;;;8.25;100.00;97581.81;5008578;28;20429;-58
2022/02/15 08:39:18;;;;;;;28.40;11.32;;;;;;;8.58;100.00;97578.81;5011002;28;20419;-58
2022/02/15 08:41:44;;;;;;;28.33;12.68;;;;;;;8.49;100.00;97589.56;5008662;28;20092;-60
2022/02/15 08:44:09;;;;;;;24.95;11.65;;;;;;;8.85;100.00;97576.03;5008648;28;20033;-59
2022/02/15 08:46:35;;;;;;;21.15;9.68;;;;;;;8.65;100.00;97582.88;5008958;28;20060;-58
2022/02/15 08:49:00;;;;;;;20.67;8.48;;;;;;;8.75;100.00;97583.38;5008845;28;20026;-60
2022/02/15 08:51:25;;;;;;;18.02;8.25;;;;;;;8.26;100.00;97593.88;5009734;28;20055;-58
2022/02/15 08:53:51;;;;;;;19.00;8.15;;;;;;;8.58;100.00;97591.81;5008463;28;20041;-60
2022/02/15 08:56:21;;;;;;;19.67;8.52;;;;;;;8.60;100.00;97603.03;5008073;28;20045;-59
2022/02/15 08:58:50;;;;;;;22.85;9.95;;;;;;;8.57;100.00;97602.28;5010114;28;20063;-61
2022/02/15 09:01:15;;;;;;;21.75;9.20;;;;;;;8.68;100.00;97605.31;5007586;28;20236;-59
2022/02/15 09:03:41;;;;;;;17.42;8.07;;;;;;;8.56;100.00;97598.81;5008230;28;20033;-59
2022/02/15 09:06:06;;;;;;;21.23;9.35;;;;;;;8.73;100.00;97587.78;5007766;28;20038;-58
2022/02/15 09:08:32;;;;;;;20.70;8.75;;;;;;;8.48;100.00;97593.09;5009196;28;20036;-60
2022/02/15 09:10:58;;;;;;;21.23;8.27;;;;;;;8.63;100.00;97602.88;5009552;28;20069;-58
2022/02/15 09:13:23;;;;;;;18.52;7.97;;;;;;;8.54;100.00;97608.44;5007981;28;20037;-59
2022/02/15 09:15:49;;;;;;;20.38;8.60;;;;;;;8.53;100.00;97613.69;5009444;28;20041;-59
2022/02/15 09:18:15;;;;;;;20.40;7.95;;;;;;;8.45;100.00;97603.59;5008571;28;20022;-59
2022/02/15 09:20:41;;;;;;;20.80;8.48;;;;;;;8.54;100.00;97613.63;5012293;28;20049;-59
2022/02/15 09:23:06;;;;;;;18.98;7.78;;;;;;;8.82;100.00;97603.00;5016216;28;20037;-59
2022/02/15 09:25:32;;;;;;;17.02;8.00;;;;;;;8.89;100.00;97603.59;5011747;28;20269;-60
2022/02/15 09:27:58;;;;;;;17.25;7.82;;;;;;;8.88;100.00;97601.91;5013833;28;20372;-60
2022/02/15 09:30:24;;;;;;;17.00;7.82;;;;;;;9.04;100.00;97603.00;5012254;28;20040;-58
2022/02/15 09:32:50;;;;;;;16.85;7.45;;;;;;;9.17;100.00;97608.53;5013953;28;20025;-59
2022/02/15 09:35:15;;;;;;;16.60;7.25;;;;;;;9.20;100.00;97608.38;5011923;28;20442;-58
2022/02/15 09:37:42;;;;;;;20.27;7.07;;;;;;;9.27;100.00;97603.78;5010624;28;20200;-59
2022/02/15 09:40:10;;;;;;;17.45;7.45;;;;;;;9.37;100.00;97614.63;5011256;28;20034;-59
2022/02/15 09:42:39;;;;;;;16.30;7.57;;;;;;;8.79;100.00;97612.69;5013126;28;20033;-60
2022/02/15 09:45:07;;;;;;;17.77;7.13;;;;;;;8.97;100.00;97611.06;5011556;28;20037;-59
2022/02/15 09:47:35;;;;;;;15.80;7.00;;;;;;;9.14;100.00;97610.41;5010738;28;20570;-59
2022/02/15 09:50:04;;;;;;;17.75;7.30;;;;;;;9.20;100.00;97603.19;5010265;28;20489;-59
2022/02/15 09:52:30;;;;;;;22.67;8.40;;;;;;;8.88;100.00;97612.31;5012158;28;20055;-59
2022/02/15 09:54:55;;;;;;;30.88;8.77;;;;;;;9.36;100.00;97619.00;5010716;28;20065;-58
2022/02/15 09:57:23;;;;;;;21.23;8.00;;;;;;;9.19;100.00;97616.25;5011328;28;20048;-57
2022/02/15 09:59:50;;;;;;;17.85;7.65;;;;;;;8.95;100.00;97615.50;5011853;28;20036;-57
2022/02/15 10:02:23;;;;;;;16.70;7.28;;;;;;;9.64;100.00;97610.84;5009987;28;20099;-58
2022/02/15 10:04:57;;;;;;;17.85;7.55;;;;;;;9.90;100.00;97610.63;5009677;28;20076;-57
2022/02/15 10:07:24;;;;;;;14.32;6.05;;;;;;;9.48;100.00;97622.00;5012771;28;20488;-61
2022/02/15 10:09:54;;;;;;;18.70;6.55;;;;;;;9.41;100.00;97630.06;5013573;28;20707;-57
2022/02/15 10:12:20;;;;;;;14.02;5.88;;;;;;;9.16;100.00;97622.44;5012105;28;20041;-59
2022/02/15 10:14:51;;;;;;;17.30;6.50;;;;;;;9.93;100.00;97620.91;5012424;28;20098;-59
2022/02/15 10:17:17;;;;;;;17.67;6.18;;;;;;;10.33;100.00;97614.78;5012676;28;20538;-60
2022/02/15 10:19:44;;;;;;;12.95;5.50;;;;;;;10.07;100.00;97618.50;5013580;28;20041;-59
2022/02/15 10:22:11;;;;;;;16.15;5.88;;;;;;;9.76;100.00;97621.63;5010293;28;20077;-57
2022/02/15 10:24:39;;;;;;;14.27;5.70;;;;;;;10.03;100.00;97630.00;5011295;28;20036;-59
2022/02/15 10:27:07;;;;;;;13.35;5.82;;;;;;;10.09;100.00;97636.69;5010736;28;20033;-59
2022/02/15 10:29:35;;;;;;;17.67;5.82;;;;;;;10.21;100.00;97629.16;5012793;28;20025;-60
2022/02/15 10:32:03;;;;;;;11.82;5.15;;;;;;;10.34;100.00;97623.44;5010194;28;20042;-59
2022/02/15 10:34:29;;;;;;;14.52;5.57;;;;;;;10.87;100.00;97627.06;5010947;28;20029;-60
2022/02/15 10:37:03;;;;;;;11.75;4.85;;;;;;;10.63;100.00;97631.69;5009589;28;20041;-60
2022/02/15 10:39:42;;;;;;;15.85;5.53;;;;;;;10.22;100.00;97630.88;5011451;28;20623;-59
2022/02/15 10:42:10;;;;;;;14.80;5.40;;;;;;;10.13;100.00;97620.88;5009964;28;20590;-58
2022/02/15 10:44:54;;;;;;;14.15;5.10;;;;;;;10.67;100.00;97630.59;5010188;28;20029;-58
2022/02/15 10:47:22;;;;;;;13.10;4.95;;;;;;;10.25;100.00;97618.63;5010866;28;20061;-60
2022/02/15 10:49:48;;;;;;;11.63;5.28;;;;;;;10.25;100.00;97608.19;5010105;28;20029;-59
2022/02/15 10:52:13;;;;;;;14.40;5.10;;;;;;;10.46;100.00;97614.19;5010915;28;20025;-59
2022/02/15 10:54:42;;;;;;;15.00;5.40;;;;;;;10.00;100.00;97615.38;5011558;28;20128;-57
2022/02/15 10:57:13;;;;;;;15.73;5.57;;;;;;;10.22;100.00;97615.22;5009190;28;20057;-59
2022/02/15 10:59:41;;;;;;;17.17;5.25;;;;;;;10.28;100.00;97623.69;5010036;28;20607;-58
2022/02/15 11:02:20;;;;;;;14.50;5.07;;;;;;;10.21;100.00;97618.75;5010891;28;20057;-60
2022/02/15 11:04:50;;;;;;;15.75;5.18;;;;;;;10.40;100.00;97617.94;5011413;28;20509;-59
2022/02/15 11:07:26;;;;;;;13.48;4.63;;;;;;;10.54;100.00;97620.75;5010486;28;20042;-58
2022/02/15 11:10:03;;;;;;;16.10;5.15;;;;;;;10.51;100.00;97615.69;5009892;28;20539;-58
2022/02/15 11:12:42;;;;;;;13.15;4.45;;;;;;;10.43;100.00;97616.97;5008731;28;20846;-60
2022/02/15 11:15:07;;;;;;;15.15;4.97;;;;;;;10.40;100.00;97615.31;5018072;28;20056;-60
2022/02/15 11:17:33;;;;;;;11.30;3.90;;;;;;;10.66;100.00;97618.47;5008969;28;20842;-59
2022/02/15 11:20:00;;;;;;;12.18;4.10;;;;;;;10.86;100.00;97615.75;5009810;28;20037;-58
2022/02/15 11:22:25;;;;;;;13.80;4.55;;;;;;;10.37;100.00;97618.94;5009544;28;20050;-58